YRARK LRDV-LROP
Flight info
| Callsign | YRARK |
|---|---|
| Flight time | 1h 11m |
| Altitude | 5000 |
| Route | IBINU DCT IRLOX DCT BIVBU DCT TOSVI |
| Aircraft | PA24/L-SDGRY/S |
Departure
| Time | 2026-04-16 03:46 |
|---|---|
| Airport | Săulești Airfield (LRDV) |
Arrival
| Time | 2026-04-16 04:58 |
|---|---|
| Airport | Bucharest Henri Coandă International Airport (LROP) |
| Time | Latitude | Longitude | Altitude | Speed | Heading |
|---|---|---|---|---|---|
| 2026-04-16 03:21 | 45.86420 | 22.96499 | 633 ft | 0 kts | 18° |
| 2026-04-16 03:42 | 45.86437 | 22.96497 | 637 ft | 7 kts | 307° |
| 2026-04-16 03:43 | 45.86442 | 22.96477 | 639 ft | 0 kts | 263° |
| 2026-04-16 03:43 | 45.86441 | 22.96468 | 633 ft | 0 kts | 240° |
| 2026-04-16 03:43 | 45.86439 | 22.96462 | 636 ft | 3 kts | 267° |
| 2026-04-16 03:43 | 45.86455 | 22.96452 | 636 ft | 0 kts | 0° |
| 2026-04-16 03:44 | 45.86472 | 22.96452 | 633 ft | 9 kts | 356° |
| 2026-04-16 03:44 | 45.86583 | 22.96428 | 643 ft | 22 kts | 348° |
| 2026-04-16 03:44 | 45.86722 | 22.96386 | 651 ft | 20 kts | 346° |
| 2026-04-16 03:44 | 45.86766 | 22.96384 | 651 ft | 5 kts | 164° |
| 2026-04-16 03:45 | 45.86713 | 22.96418 | 645 ft | 13 kts | 130° |
| 2026-04-16 03:45 | 45.86620 | 22.96606 | 650 ft | 50 kts | 123° |
| 2026-04-16 03:45 | 45.86347 | 22.97185 | 712 ft | 79 kts | 122° |
| 2026-04-16 03:45 | 45.86045 | 22.97910 | 852 ft | 87 kts | 117° |
| 2026-04-16 03:46 | 45.85807 | 22.98764 | 1007 ft | 94 kts | 114° |
| 2026-04-16 03:46 | 45.85511 | 22.99625 | 1201 ft | 103 kts | 115° |
| 2026-04-16 03:46 | 45.85220 | 23.00529 | 1557 ft | 100 kts | 110° |
| 2026-04-16 03:46 | 45.84959 | 23.01487 | 1873 ft | 100 kts | 109° |
| 2026-04-16 03:47 | 45.84787 | 23.02453 | 2188 ft | 104 kts | 99° |
| 2026-04-16 03:47 | 45.84839 | 23.03496 | 2466 ft | 109 kts | 77° |
| 2026-04-16 03:47 | 45.84916 | 23.04580 | 2776 ft | 108 kts | 84° |
| 2026-04-16 03:47 | 45.84957 | 23.05658 | 3073 ft | 110 kts | 89° |
| 2026-04-16 03:48 | 45.84979 | 23.06726 | 3410 ft | 108 kts | 85° |
| 2026-04-16 03:48 | 45.85037 | 23.07866 | 3600 ft | 116 kts | 82° |
| 2026-04-16 03:48 | 45.85177 | 23.08969 | 3874 ft | 115 kts | 76° |
| 2026-04-16 03:48 | 45.85396 | 23.10079 | 4076 ft | 119 kts | 74° |
| 2026-04-16 03:49 | 45.85650 | 23.11208 | 4374 ft | 111 kts | 66° |
| 2026-04-16 03:49 | 45.86009 | 23.12197 | 4584 ft | 116 kts | 58° |
| 2026-04-16 03:49 | 45.86483 | 23.13123 | 4838 ft | 115 kts | 51° |
| 2026-04-16 03:49 | 45.86870 | 23.14190 | 4984 ft | 122 kts | 62° |
| 2026-04-16 03:50 | 45.87255 | 23.15255 | 5236 ft | 118 kts | 60° |
| 2026-04-16 03:50 | 45.87643 | 23.16388 | 5341 ft | 126 kts | 61° |
| 2026-04-16 03:50 | 45.88026 | 23.17522 | 5497 ft | 130 kts | 64° |
| 2026-04-16 03:50 | 45.88441 | 23.18816 | 5262 ft | 159 kts | 63° |
| 2026-04-16 03:51 | 45.88931 | 23.20284 | 5228 ft | 163 kts | 63° |
| 2026-04-16 03:51 | 45.89443 | 23.21780 | 5256 ft | 160 kts | 62° |
| 2026-04-16 03:51 | 45.89956 | 23.23306 | 4802 ft | 187 kts | 63° |
| 2026-04-16 03:51 | 45.90359 | 23.24371 | 4849 ft | 179 kts | 58° |
| 2026-04-16 03:52 | 45.90996 | 23.25892 | 4813 ft | 175 kts | 58° |
| 2026-04-16 03:52 | 45.91789 | 23.27828 | 4867 ft | 169 kts | 61° |
| 2026-04-16 03:52 | 45.92096 | 23.28874 | 4904 ft | 166 kts | 70° |
| 2026-04-16 03:52 | 45.92371 | 23.30498 | 4887 ft | 165 kts | 77° |
| 2026-04-16 03:53 | 45.92589 | 23.32062 | 5046 ft | 159 kts | 79° |
| 2026-04-16 03:53 | 45.92759 | 23.33616 | 5076 ft | 162 kts | 82° |
| 2026-04-16 03:53 | 45.92886 | 23.35308 | 4930 ft | 171 kts | 83° |
| 2026-04-16 03:53 | 45.93026 | 23.36986 | 5017 ft | 164 kts | 83° |
| 2026-04-16 03:54 | 45.93304 | 23.38491 | 5235 ft | 155 kts | 72° |
| 2026-04-16 03:54 | 45.93623 | 23.40041 | 5148 ft | 165 kts | 73° |
| 2026-04-16 03:54 | 45.93922 | 23.41626 | 5236 ft | 161 kts | 74° |
| 2026-04-16 03:54 | 45.94217 | 23.43205 | 5099 ft | 172 kts | 75° |
| 2026-04-16 03:55 | 45.94469 | 23.44859 | 5179 ft | 165 kts | 78° |
| 2026-04-16 03:55 | 45.94696 | 23.46547 | 5041 ft | 173 kts | 78° |
| 2026-04-16 03:55 | 45.94928 | 23.48234 | 5058 ft | 171 kts | 78° |
| 2026-04-16 03:55 | 45.95160 | 23.49905 | 5063 ft | 170 kts | 78° |
| 2026-04-16 03:56 | 45.95387 | 23.51549 | 5065 ft | 169 kts | 78° |
| 2026-04-16 03:56 | 45.95619 | 23.53211 | 5066 ft | 169 kts | 78° |
| 2026-04-16 03:56 | 45.95828 | 23.54872 | 5043 ft | 170 kts | 86° |
| 2026-04-16 03:56 | 45.95503 | 23.56527 | 4891 ft | 175 kts | 116° |
| 2026-04-16 03:57 | 45.94982 | 23.57988 | 5165 ft | 153 kts | 119° |
| 2026-04-16 03:57 | 45.94464 | 23.59283 | 5247 ft | 153 kts | 122° |
| 2026-04-16 03:57 | 45.93919 | 23.60567 | 5278 ft | 157 kts | 122° |
| 2026-04-16 03:57 | 45.93295 | 23.62020 | 5003 ft | 166 kts | 119° |
| 2026-04-16 03:58 | 45.92795 | 23.63460 | 5004 ft | 163 kts | 115° |
| 2026-04-16 03:58 | 45.92322 | 23.64977 | 4926 ft | 160 kts | 113° |
| 2026-04-16 03:58 | 45.91932 | 23.66397 | 5072 ft | 151 kts | 110° |
| 2026-04-16 03:58 | 45.91589 | 23.67783 | 5176 ft | 144 kts | 109° |
| 2026-04-16 03:59 | 45.91284 | 23.69159 | 5150 ft | 149 kts | 107° |
| 2026-04-16 03:59 | 45.91005 | 23.70585 | 5196 ft | 146 kts | 101° |
| 2026-04-16 03:59 | 45.91008 | 23.72074 | 5096 ft | 154 kts | 90° |
| 2026-04-16 03:59 | 45.90855 | 23.73543 | 5219 ft | 146 kts | 104° |
| 2026-04-16 04:00 | 45.90555 | 23.74984 | 5145 ft | 154 kts | 107° |
| 2026-04-16 04:00 | 45.90228 | 23.76409 | 5235 ft | 148 kts | 109° |
| 2026-04-16 04:00 | 45.89875 | 23.77812 | 5220 ft | 150 kts | 114° |
| 2026-04-16 04:00 | 45.89424 | 23.79162 | 5219 ft | 150 kts | 115° |
| 2026-04-16 04:01 | 45.88983 | 23.80523 | 5216 ft | 151 kts | 115° |
| 2026-04-16 04:01 | 45.88550 | 23.81884 | 5212 ft | 151 kts | 115° |
| 2026-04-16 04:01 | 45.88111 | 23.83259 | 5210 ft | 152 kts | 115° |
| 2026-04-16 04:01 | 45.87674 | 23.84647 | 5209 ft | 153 kts | 115° |
| 2026-04-16 04:02 | 45.87238 | 23.86032 | 5209 ft | 152 kts | 115° |
| 2026-04-16 04:02 | 45.86810 | 23.87426 | 5207 ft | 152 kts | 109° |
| 2026-04-16 04:02 | 45.86227 | 23.88650 | 5195 ft | 150 kts | 144° |
| 2026-04-16 04:02 | 45.85371 | 23.89493 | 5210 ft | 149 kts | 148° |
| 2026-04-16 04:03 | 45.84489 | 23.90347 | 5216 ft | 157 kts | 148° |
| 2026-04-16 04:03 | 45.83576 | 23.91227 | 5216 ft | 162 kts | 148° |
| 2026-04-16 04:03 | 45.82635 | 23.92125 | 5215 ft | 161 kts | 148° |
| 2026-04-16 04:03 | 45.81705 | 23.93027 | 5212 ft | 161 kts | 148° |
| 2026-04-16 04:04 | 45.80782 | 23.93925 | 5206 ft | 158 kts | 148° |
| 2026-04-16 04:04 | 45.79864 | 23.94819 | 5210 ft | 161 kts | 148° |
| 2026-04-16 04:04 | 45.78942 | 23.95714 | 5234 ft | 162 kts | 148° |
| 2026-04-16 04:04 | 45.77995 | 23.96630 | 5226 ft | 166 kts | 148° |
| 2026-04-16 04:05 | 45.77201 | 23.97795 | 5231 ft | 166 kts | 116° |
| 2026-04-16 04:05 | 45.77101 | 23.99413 | 5231 ft | 166 kts | 83° |
| 2026-04-16 04:05 | 45.76957 | 24.01050 | 5230 ft | 168 kts | 94° |
| 2026-04-16 04:05 | 45.77010 | 24.02731 | 5231 ft | 169 kts | 88° |
| 2026-04-16 04:06 | 45.76958 | 24.04412 | 5246 ft | 168 kts | 92° |
| 2026-04-16 04:06 | 45.76890 | 24.06098 | 5217 ft | 168 kts | 92° |
| 2026-04-16 04:06 | 45.76824 | 24.07772 | 5167 ft | 171 kts | 92° |
| 2026-04-16 04:06 | 45.76759 | 24.09496 | 5145 ft | 172 kts | 92° |
| 2026-04-16 04:07 | 45.76692 | 24.11207 | 5142 ft | 172 kts | 92° |
| 2026-04-16 04:07 | 45.76559 | 24.14642 | 5136 ft | 172 kts | 92° |
| 2026-04-16 04:07 | 45.76496 | 24.16325 | 5135 ft | 170 kts | 92° |
| 2026-04-16 04:08 | 45.76331 | 24.17997 | 5118 ft | 171 kts | 112° |
| 2026-04-16 04:08 | 45.75525 | 24.19180 | 5129 ft | 168 kts | 155° |
| 2026-04-16 04:08 | 45.74473 | 24.19894 | 5137 ft | 167 kts | 153° |
| 2026-04-16 04:08 | 45.73458 | 24.20719 | 5136 ft | 168 kts | 153° |
| 2026-04-16 04:09 | 45.72440 | 24.21530 | 5143 ft | 167 kts | 153° |
| 2026-04-16 04:09 | 45.71421 | 24.22318 | 5141 ft | 167 kts | 153° |
| 2026-04-16 04:09 | 45.70406 | 24.23091 | 5141 ft | 167 kts | 153° |
| 2026-04-16 04:09 | 45.69378 | 24.23873 | 5149 ft | 167 kts | 153° |
| 2026-04-16 04:10 | 45.68350 | 24.24653 | 5148 ft | 167 kts | 153° |
| 2026-04-16 04:10 | 45.67322 | 24.25435 | 5148 ft | 167 kts | 153° |
| 2026-04-16 04:10 | 45.66297 | 24.26221 | 5153 ft | 167 kts | 153° |
| 2026-04-16 04:10 | 45.65234 | 24.26899 | 5142 ft | 168 kts | 168° |
| 2026-04-16 04:11 | 45.64089 | 24.27176 | 5156 ft | 166 kts | 172° |
| 2026-04-16 04:11 | 45.62924 | 24.27148 | 5088 ft | 169 kts | 189° |
| 2026-04-16 04:11 | 45.61780 | 24.26892 | 5071 ft | 168 kts | 192° |
| 2026-04-16 04:11 | 45.60649 | 24.26573 | 5120 ft | 164 kts | 194° |
| 2026-04-16 04:12 | 45.59493 | 24.26516 | 5067 ft | 166 kts | 171° |
| 2026-04-16 04:12 | 45.58350 | 24.26796 | 5058 ft | 167 kts | 174° |
| 2026-04-16 04:12 | 45.57202 | 24.27013 | 5063 ft | 165 kts | 173° |
| 2026-04-16 04:12 | 45.56065 | 24.27231 | 5063 ft | 165 kts | 173° |
| 2026-04-16 04:13 | 45.54925 | 24.27445 | 5067 ft | 165 kts | 173° |
| 2026-04-16 04:13 | 45.53785 | 24.27656 | 5067 ft | 165 kts | 173° |
| 2026-04-16 04:13 | 45.52643 | 24.27867 | 5068 ft | 166 kts | 173° |
| 2026-04-16 04:13 | 45.51495 | 24.28080 | 5062 ft | 167 kts | 173° |
| 2026-04-16 04:14 | 45.50346 | 24.28293 | 5074 ft | 166 kts | 173° |
| 2026-04-16 04:14 | 45.49198 | 24.28508 | 5070 ft | 166 kts | 173° |
| 2026-04-16 04:14 | 45.48048 | 24.28722 | 5078 ft | 167 kts | 173° |
| 2026-04-16 04:14 | 45.46904 | 24.28943 | 5090 ft | 169 kts | 173° |
| 2026-04-16 04:15 | 45.45746 | 24.29172 | 5135 ft | 167 kts | 172° |
| 2026-04-16 04:15 | 45.44600 | 24.29390 | 5163 ft | 166 kts | 175° |
| 2026-04-16 04:15 | 45.43436 | 24.29436 | 5176 ft | 168 kts | 181° |
| 2026-04-16 04:15 | 45.42270 | 24.29368 | 5218 ft | 167 kts | 182° |
| 2026-04-16 04:16 | 45.41109 | 24.29312 | 5202 ft | 169 kts | 183° |
| 2026-04-16 04:16 | 45.39927 | 24.29172 | 5114 ft | 172 kts | 187° |
| 2026-04-16 04:16 | 45.38721 | 24.29162 | 5066 ft | 172 kts | 179° |
| 2026-04-16 04:16 | 45.37521 | 24.29267 | 5003 ft | 172 kts | 178° |
| 2026-04-16 04:17 | 45.36337 | 24.29178 | 4950 ft | 174 kts | 189° |
| 2026-04-16 04:17 | 45.35112 | 24.28811 | 4775 ft | 175 kts | 193° |
| 2026-04-16 04:17 | 45.33982 | 24.28490 | 5032 ft | 162 kts | 191° |
| 2026-04-16 04:17 | 45.32849 | 24.28335 | 4953 ft | 169 kts | 176° |
| 2026-04-16 04:18 | 45.31694 | 24.28703 | 4996 ft | 169 kts | 159° |
| 2026-04-16 04:18 | 45.30624 | 24.29335 | 5098 ft | 164 kts | 155° |
| 2026-04-16 04:18 | 45.29583 | 24.30037 | 5079 ft | 167 kts | 153° |
| 2026-04-16 04:18 | 45.28540 | 24.30776 | 5092 ft | 167 kts | 153° |
| 2026-04-16 04:19 | 45.27478 | 24.31383 | 5090 ft | 169 kts | 163° |
| 2026-04-16 04:19 | 45.26403 | 24.32050 | 5109 ft | 168 kts | 153° |
| 2026-04-16 04:19 | 45.25362 | 24.32763 | 5104 ft | 168 kts | 154° |
| 2026-04-16 04:19 | 45.24300 | 24.33484 | 5101 ft | 169 kts | 154° |
| 2026-04-16 04:20 | 45.23238 | 24.34205 | 5099 ft | 169 kts | 154° |
| 2026-04-16 04:20 | 45.22177 | 24.34925 | 5101 ft | 169 kts | 154° |
| 2026-04-16 04:20 | 45.21116 | 24.35646 | 5100 ft | 169 kts | 154° |
| 2026-04-16 04:20 | 45.20031 | 24.36282 | 5101 ft | 169 kts | 163° |
| 2026-04-16 04:21 | 45.18899 | 24.36738 | 5099 ft | 169 kts | 163° |
| 2026-04-16 04:21 | 45.17770 | 24.37197 | 5099 ft | 169 kts | 163° |
| 2026-04-16 04:21 | 45.16622 | 24.37534 | 5096 ft | 169 kts | 178° |
| 2026-04-16 04:21 | 45.15459 | 24.37486 | 5101 ft | 169 kts | 181° |
| 2026-04-16 04:22 | 45.14282 | 24.37389 | 5101 ft | 169 kts | 187° |
| 2026-04-16 04:22 | 45.13123 | 24.37120 | 5097 ft | 169 kts | 192° |
| 2026-04-16 04:22 | 45.11977 | 24.36766 | 5098 ft | 168 kts | 192° |
| 2026-04-16 04:22 | 45.10833 | 24.36412 | 5099 ft | 168 kts | 192° |
| 2026-04-16 04:23 | 45.09704 | 24.35981 | 5101 ft | 169 kts | 200° |
| 2026-04-16 04:23 | 45.08600 | 24.35397 | 5100 ft | 169 kts | 200° |
| 2026-04-16 04:23 | 45.07492 | 24.34831 | 5100 ft | 170 kts | 200° |
| 2026-04-16 04:23 | 45.06370 | 24.34316 | 5100 ft | 169 kts | 197° |
| 2026-04-16 04:24 | 45.05263 | 24.33835 | 5099 ft | 169 kts | 197° |
| 2026-04-16 04:24 | 45.04141 | 24.33349 | 5099 ft | 168 kts | 197° |
| 2026-04-16 04:24 | 45.03013 | 24.32907 | 5100 ft | 168 kts | 195° |
| 2026-04-16 04:24 | 45.01877 | 24.32479 | 5099 ft | 169 kts | 195° |
| 2026-04-16 04:25 | 45.00731 | 24.32114 | 5101 ft | 168 kts | 190° |
| 2026-04-16 04:25 | 44.99575 | 24.31829 | 5099 ft | 169 kts | 190° |
| 2026-04-16 04:25 | 44.98408 | 24.31661 | 5097 ft | 169 kts | 175° |
| 2026-04-16 04:25 | 44.97241 | 24.31907 | 5100 ft | 169 kts | 171° |
| 2026-04-16 04:26 | 44.96093 | 24.32142 | 5100 ft | 168 kts | 172° |
| 2026-04-16 04:26 | 44.94934 | 24.32363 | 5100 ft | 168 kts | 172° |
| 2026-04-16 04:26 | 44.93771 | 24.32595 | 5100 ft | 169 kts | 172° |
| 2026-04-16 04:26 | 44.92608 | 24.32826 | 5100 ft | 168 kts | 172° |
| 2026-04-16 04:27 | 44.91451 | 24.33046 | 5100 ft | 167 kts | 172° |
| 2026-04-16 04:27 | 44.90304 | 24.33315 | 5098 ft | 168 kts | 161° |
| 2026-04-16 04:27 | 44.89403 | 24.34327 | 5092 ft | 168 kts | 123° |
| 2026-04-16 04:27 | 44.88790 | 24.35716 | 5107 ft | 167 kts | 117° |
| 2026-04-16 04:28 | 44.88473 | 24.37275 | 5107 ft | 166 kts | 94° |
| 2026-04-16 04:28 | 44.88425 | 24.38899 | 5104 ft | 166 kts | 90° |
| 2026-04-16 04:28 | 44.88409 | 24.40521 | 5102 ft | 165 kts | 89° |
| 2026-04-16 04:28 | 44.88397 | 24.42139 | 5101 ft | 164 kts | 89° |
| 2026-04-16 04:29 | 44.88388 | 24.43744 | 5101 ft | 163 kts | 89° |
| 2026-04-16 04:29 | 44.88382 | 24.45328 | 5101 ft | 163 kts | 89° |
| 2026-04-16 04:29 | 44.88377 | 24.46929 | 5102 ft | 163 kts | 89° |
| 2026-04-16 04:29 | 44.88351 | 24.48528 | 5099 ft | 163 kts | 91° |
| 2026-04-16 04:30 | 44.88306 | 24.50129 | 5099 ft | 163 kts | 91° |
| 2026-04-16 04:30 | 44.88263 | 24.51730 | 5100 ft | 163 kts | 91° |
| 2026-04-16 04:30 | 44.88176 | 24.53327 | 5101 ft | 164 kts | 97° |
| 2026-04-16 04:30 | 44.87909 | 24.54889 | 5101 ft | 164 kts | 105° |
| 2026-04-16 04:31 | 44.87581 | 24.56414 | 5099 ft | 165 kts | 105° |
| 2026-04-16 04:31 | 44.87261 | 24.57969 | 5101 ft | 165 kts | 104° |
| 2026-04-16 04:31 | 44.86945 | 24.59527 | 5099 ft | 165 kts | 104° |
| 2026-04-16 04:31 | 44.86631 | 24.61082 | 5100 ft | 165 kts | 104° |
| 2026-04-16 04:32 | 44.86318 | 24.62638 | 5097 ft | 165 kts | 104° |
| 2026-04-16 04:32 | 44.86004 | 24.64196 | 5097 ft | 165 kts | 104° |
| 2026-04-16 04:32 | 44.85692 | 24.65752 | 5097 ft | 165 kts | 104° |
| 2026-04-16 04:32 | 44.85386 | 24.67287 | 5096 ft | 165 kts | 104° |
| 2026-04-16 04:33 | 44.85076 | 24.68846 | 5099 ft | 165 kts | 104° |
| 2026-04-16 04:33 | 44.84766 | 24.70411 | 5099 ft | 165 kts | 104° |
| 2026-04-16 04:33 | 44.84462 | 24.71973 | 5100 ft | 165 kts | 104° |
| 2026-04-16 04:33 | 44.84156 | 24.73534 | 5100 ft | 165 kts | 104° |
| 2026-04-16 04:34 | 44.83848 | 24.75097 | 5100 ft | 165 kts | 104° |
| 2026-04-16 04:34 | 44.83540 | 24.76662 | 5100 ft | 165 kts | 104° |
| 2026-04-16 04:34 | 44.83236 | 24.78222 | 5097 ft | 165 kts | 104° |
| 2026-04-16 04:34 | 44.82933 | 24.79784 | 5097 ft | 165 kts | 104° |
| 2026-04-16 04:35 | 44.82637 | 24.81326 | 5094 ft | 165 kts | 104° |
| 2026-04-16 04:35 | 44.82336 | 24.82888 | 5097 ft | 165 kts | 104° |
| 2026-04-16 04:35 | 44.82035 | 24.84452 | 5095 ft | 165 kts | 104° |
| 2026-04-16 04:35 | 44.81733 | 24.86013 | 5095 ft | 165 kts | 104° |
| 2026-04-16 04:36 | 44.81434 | 24.87577 | 5097 ft | 165 kts | 104° |
| 2026-04-16 04:36 | 44.81134 | 24.89145 | 5097 ft | 165 kts | 104° |
| 2026-04-16 04:36 | 44.80837 | 24.90707 | 5097 ft | 165 kts | 104° |
| 2026-04-16 04:36 | 44.80539 | 24.92278 | 5094 ft | 165 kts | 104° |
| 2026-04-16 04:37 | 44.80242 | 24.93842 | 5094 ft | 165 kts | 104° |
| 2026-04-16 04:37 | 44.79949 | 24.95385 | 5094 ft | 165 kts | 103° |
| 2026-04-16 04:37 | 44.79655 | 24.96954 | 5094 ft | 165 kts | 103° |
| 2026-04-16 04:37 | 44.79366 | 24.98520 | 5094 ft | 165 kts | 103° |
| 2026-04-16 04:38 | 44.79073 | 25.00087 | 5095 ft | 165 kts | 103° |
| 2026-04-16 04:38 | 44.78782 | 25.01656 | 5094 ft | 165 kts | 103° |
| 2026-04-16 04:38 | 44.78469 | 25.03213 | 5095 ft | 165 kts | 105° |
| 2026-04-16 04:38 | 44.78140 | 25.04766 | 5094 ft | 165 kts | 105° |
| 2026-04-16 04:39 | 44.77818 | 25.06315 | 5092 ft | 164 kts | 105° |
| 2026-04-16 04:39 | 44.77509 | 25.07856 | 5092 ft | 163 kts | 105° |
| 2026-04-16 04:39 | 44.77205 | 25.09376 | 5092 ft | 163 kts | 106° |
| 2026-04-16 04:39 | 44.76872 | 25.10899 | 5092 ft | 163 kts | 106° |
| 2026-04-16 04:40 | 44.76551 | 25.12428 | 5094 ft | 163 kts | 106° |
| 2026-04-16 04:40 | 44.76228 | 25.13961 | 5094 ft | 163 kts | 106° |
| 2026-04-16 04:40 | 44.76011 | 25.14996 | 5094 ft | 163 kts | 106° |
| 2026-04-16 04:40 | 44.75693 | 25.16513 | 5094 ft | 163 kts | 106° |
| 2026-04-16 04:41 | 44.75373 | 25.18044 | 5094 ft | 163 kts | 106° |
| 2026-04-16 04:41 | 44.75055 | 25.19577 | 5089 ft | 163 kts | 106° |
| 2026-04-16 04:41 | 44.74737 | 25.21109 | 5089 ft | 163 kts | 105° |
| 2026-04-16 04:41 | 44.74545 | 25.22129 | 5089 ft | 163 kts | 104° |
| 2026-04-16 04:42 | 44.74351 | 25.23205 | 5087 ft | 163 kts | 104° |
| 2026-04-16 04:42 | 44.74076 | 25.24736 | 5089 ft | 163 kts | 104° |
| 2026-04-16 04:42 | 44.73799 | 25.26283 | 5084 ft | 162 kts | 103° |
| 2026-04-16 04:42 | 44.73504 | 25.27814 | 4994 ft | 162 kts | 108° |
| 2026-04-16 04:43 | 44.73123 | 25.29283 | 5031 ft | 152 kts | 111° |
| 2026-04-16 04:43 | 44.72697 | 25.30695 | 4970 ft | 156 kts | 114° |
| 2026-04-16 04:43 | 44.72230 | 25.31998 | 5141 ft | 142 kts | 118° |
| 2026-04-16 04:43 | 44.71760 | 25.33172 | 5080 ft | 132 kts | 120° |
| 2026-04-16 04:44 | 44.71313 | 25.34121 | 5108 ft | 100 kts | 125° |
| 2026-04-16 04:44 | 44.70979 | 25.34874 | 5007 ft | 86 kts | 115° |
| 2026-04-16 04:44 | 44.70700 | 25.35685 | 4998 ft | 94 kts | 115° |
| 2026-04-16 04:44 | 44.70435 | 25.36472 | 4992 ft | 79 kts | 113° |
| 2026-04-16 04:45 | 44.70301 | 25.37170 | 4849 ft | 70 kts | 100° |
| 2026-04-16 04:45 | 44.70240 | 25.37883 | 4660 ft | 74 kts | 99° |
| 2026-04-16 04:45 | 44.70175 | 25.38593 | 4524 ft | 70 kts | 98° |
| 2026-04-16 04:45 | 44.70095 | 25.39409 | 4369 ft | 101 kts | 94° |
| 2026-04-16 04:46 | 44.70025 | 25.40585 | 4010 ft | 144 kts | 103° |
| 2026-04-16 04:46 | 44.69683 | 25.41904 | 4228 ft | 133 kts | 116° |
| 2026-04-16 04:46 | 44.69240 | 25.42923 | 4696 ft | 110 kts | 128° |
| 2026-04-16 04:46 | 44.68707 | 25.43703 | 4973 ft | 114 kts | 135° |
| 2026-04-16 04:47 | 44.68178 | 25.44592 | 5088 ft | 128 kts | 121° |
| 2026-04-16 04:47 | 44.67884 | 25.45809 | 5214 ft | 134 kts | 106° |
| 2026-04-16 04:47 | 44.67654 | 25.47232 | 4982 ft | 160 kts | 102° |
| 2026-04-16 04:47 | 44.67411 | 25.48711 | 5123 ft | 156 kts | 103° |
| 2026-04-16 04:48 | 44.67162 | 25.50205 | 5104 ft | 161 kts | 103° |
| 2026-04-16 04:48 | 44.66905 | 25.51746 | 5098 ft | 163 kts | 103° |
| 2026-04-16 04:48 | 44.66647 | 25.53305 | 5094 ft | 164 kts | 103° |
| 2026-04-16 04:48 | 44.66388 | 25.54871 | 5093 ft | 165 kts | 103° |
| 2026-04-16 04:49 | 44.66129 | 25.56435 | 5095 ft | 164 kts | 103° |
| 2026-04-16 04:49 | 44.65871 | 25.58000 | 5085 ft | 166 kts | 103° |
| 2026-04-16 04:49 | 44.65615 | 25.59570 | 5122 ft | 163 kts | 103° |
| 2026-04-16 04:49 | 44.65364 | 25.61109 | 5111 ft | 164 kts | 102° |
| 2026-04-16 04:50 | 44.65073 | 25.62664 | 5108 ft | 165 kts | 108° |
| 2026-04-16 04:50 | 44.64702 | 25.64191 | 5103 ft | 165 kts | 108° |
| 2026-04-16 04:50 | 44.64333 | 25.65720 | 5101 ft | 165 kts | 108° |
| 2026-04-16 04:50 | 44.63963 | 25.67245 | 5101 ft | 165 kts | 108° |
| 2026-04-16 04:51 | 44.63594 | 25.68777 | 5100 ft | 165 kts | 108° |
| 2026-04-16 04:51 | 44.63226 | 25.70304 | 5100 ft | 165 kts | 108° |
| 2026-04-16 04:51 | 44.62858 | 25.71827 | 5100 ft | 165 kts | 108° |
| 2026-04-16 04:51 | 44.62492 | 25.73357 | 5099 ft | 165 kts | 108° |
| 2026-04-16 04:52 | 44.62130 | 25.74866 | 5099 ft | 165 kts | 108° |
| 2026-04-16 04:52 | 44.61714 | 25.76376 | 5099 ft | 166 kts | 112° |
| 2026-04-16 04:52 | 44.61255 | 25.77863 | 5097 ft | 166 kts | 112° |
| 2026-04-16 04:52 | 44.60797 | 25.79354 | 5097 ft | 166 kts | 112° |
| 2026-04-16 04:53 | 44.60337 | 25.80842 | 5097 ft | 166 kts | 112° |
| 2026-04-16 04:53 | 44.59882 | 25.82337 | 5096 ft | 166 kts | 112° |
| 2026-04-16 04:53 | 44.59434 | 25.83810 | 5096 ft | 165 kts | 112° |
| 2026-04-16 04:53 | 44.58989 | 25.85284 | 5092 ft | 163 kts | 112° |
| 2026-04-16 04:54 | 44.58539 | 25.86761 | 5095 ft | 165 kts | 112° |
| 2026-04-16 04:54 | 44.58084 | 25.88247 | 5096 ft | 166 kts | 112° |
| 2026-04-16 04:54 | 44.57633 | 25.89728 | 5095 ft | 167 kts | 112° |
| 2026-04-16 04:54 | 44.57179 | 25.91226 | 5094 ft | 167 kts | 112° |
| 2026-04-16 04:55 | 44.56721 | 25.92749 | 5093 ft | 167 kts | 111° |
| 2026-04-16 04:55 | 44.56610 | 25.94394 | 4584 ft | 189 kts | 76° |
| 2026-04-16 04:55 | 44.56836 | 25.96175 | 3944 ft | 180 kts | 81° |
| 2026-04-16 04:55 | 44.56974 | 25.97818 | 3583 ft | 164 kts | 84° |
| 2026-04-16 04:56 | 44.57088 | 25.99356 | 3251 ft | 156 kts | 84° |
| 2026-04-16 04:56 | 44.57177 | 26.00899 | 2733 ft | 158 kts | 84° |
| 2026-04-16 04:56 | 44.57297 | 26.02444 | 2064 ft | 157 kts | 84° |
| 2026-04-16 04:56 | 44.57344 | 26.03948 | 1521 ft | 149 kts | 84° |
| 2026-04-16 04:57 | 44.57462 | 26.05350 | 981 ft | 143 kts | 83° |
| 2026-04-16 04:57 | 44.57536 | 26.06614 | 598 ft | 116 kts | 83° |
| 2026-04-16 04:57 | 44.57593 | 26.07587 | 520 ft | 96 kts | 81° |
| 2026-04-16 04:57 | 44.57668 | 26.08523 | 337 ft | 89 kts | 81° |
| 2026-04-16 04:58 | 44.57726 | 26.09242 | 314 ft | 60 kts | 81° |
| 2026-04-16 04:58 | 44.57761 | 26.09708 | 315 ft | 37 kts | 83° |
| 2026-04-16 04:58 | 44.57787 | 26.10020 | 317 ft | 28 kts | 84° |
| 2026-04-16 04:58 | 44.57804 | 26.10255 | 318 ft | 21 kts | 82° |
| 2026-04-16 04:59 | 44.57818 | 26.10442 | 316 ft | 18 kts | 86° |
| 2026-04-16 04:59 | 44.57828 | 26.10599 | 315 ft | 15 kts | 83° |
| 2026-04-16 04:59 | 44.57835 | 26.10724 | 315 ft | 9 kts | 89° |
| 2026-04-16 04:59 | 44.57828 | 26.10845 | 314 ft | 15 kts | 96° |
| 2026-04-16 05:00 | 44.57801 | 26.11004 | 313 ft | 18 kts | 112° |
| 2026-04-16 05:00 | 44.57746 | 26.11165 | 314 ft | 18 kts | 137° |
| 2026-04-16 05:00 | 44.57693 | 26.11091 | 315 ft | 17 kts | 263° |
| 2026-04-16 05:00 | 44.57676 | 26.10883 | 315 ft | 25 kts | 264° |
| 2026-04-16 05:01 | 44.57661 | 26.10680 | 315 ft | 16 kts | 263° |
| 2026-04-16 05:01 | 44.57644 | 26.10489 | 315 ft | 36 kts | 264° |
| 2026-04-16 05:01 | 44.57625 | 26.10207 | 315 ft | 23 kts | 265° |
| 2026-04-16 05:01 | 44.57612 | 26.10026 | 315 ft | 14 kts | 263° |
| 2026-04-16 05:02 | 44.57603 | 26.09923 | 315 ft | 10 kts | 263° |
| 2026-04-16 05:02 | 44.57533 | 26.09827 | 315 ft | 19 kts | 183° |
| 2026-04-16 05:02 | 44.57424 | 26.09844 | 315 ft | 13 kts | 173° |
| 2026-04-16 05:02 | 44.57363 | 26.09833 | 315 ft | 6 kts | 240° |
| 2026-04-16 05:03 | 44.57360 | 26.09797 | 315 ft | 2 kts | 269° |
| 2026-04-16 05:03 | 44.57360 | 26.09785 | 315 ft | 10 kts | 268° |
| 2026-04-16 05:03 | 44.57329 | 26.09756 | 315 ft | 3 kts | 174° |
| 2026-04-16 05:04 | 44.57318 | 26.09757 | 315 ft | 0 kts | 175° |
| 2026-04-16 05:07 | 44.57320 | 26.09757 | 315 ft | 2 kts | 182° |
| 2026-04-16 05:08 | 44.57318 | 26.09759 | 315 ft | 0 kts | 150° |